createdAt,value
2023-03-17T00:00:18.900Z,101023.41
2023-03-17T00:01:19.662Z,101022.98
2023-03-17T00:02:20.461Z,101022.59
2023-03-17T00:03:21.483Z,101022.59
2023-03-17T00:04:22.093Z,101022.59
2023-03-17T00:05:22.864Z,101022.59
2023-03-17T00:06:23.556Z,101022.27
2023-03-17T00:07:24.152Z,101021.98
2023-03-17T00:08:07.439Z,101012.45
2023-03-17T00:09:08.091Z,101025.06
2023-03-17T00:10:08.750Z,101024.66
2023-03-17T00:11:09.495Z,101024.38
2023-03-17T00:12:10.222Z,101023.95
2023-03-17T00:13:10.770Z,101023.63
2023-03-17T00:14:11.343Z,101023.53
2023-03-17T00:15:12.022Z,101023.51
2023-03-17T00:16:12.872Z,101023.59
2023-03-17T00:17:13.577Z,101023.34
2023-03-17T00:18:14.290Z,101023.41
2023-03-17T00:18:57.630Z,101011.48
2023-03-17T00:19:58.187Z,101024.27
2023-03-17T00:20:58.955Z,101023.55
2023-03-17T00:21:59.780Z,101022.96
2023-03-17T00:23:00.304Z,101022.88
2023-03-17T00:24:01.006Z,101022.38
2023-03-17T00:25:01.696Z,101021.55
2023-03-17T00:26:02.493Z,101020.93
2023-03-17T00:27:03.295Z,101020.52
2023-03-17T00:28:04.037Z,101019.77
2023-03-17T00:29:04.705Z,101019.24
2023-03-17T00:30:05.385Z,101019.00
2023-03-17T00:30:17.051Z,100994.24
2023-03-17T00:31:51.098Z,100953.02
2023-03-17T00:32:51.891Z,101020.84
2023-03-17T00:33:52.535Z,101020.67
2023-03-17T00:34:53.198Z,101020.42
2023-03-17T00:35:53.929Z,101020.34
2023-03-17T00:36:54.564Z,101019.91
2023-03-17T00:37:55.396Z,101019.41
2023-03-17T00:38:55.600Z,101018.62
2023-03-17T00:39:56.555Z,101017.88
2023-03-17T00:41:05.893Z,101017.97
2023-03-17T00:41:57.180Z,101016.63
2023-03-17T00:42:12.988Z,100956.55
2023-03-17T00:43:13.401Z,101020.63
2023-03-17T00:44:14.366Z,101020.25
2023-03-17T00:45:15.156Z,101019.91
2023-03-17T00:46:15.768Z,101019.48
2023-03-17T00:47:16.243Z,101019.02
2023-03-17T00:48:17.022Z,101018.25
2023-03-17T00:49:17.757Z,101017.41
2023-03-17T00:50:18.469Z,101016.91
2023-03-17T00:51:19.080Z,101016.41
2023-03-17T00:52:19.738Z,101015.66
2023-03-17T00:53:20.477Z,101015.16
2023-03-17T00:53:33.587Z,100989.70
2023-03-17T00:54:34.336Z,101004.79
2023-03-17T00:55:35.008Z,101004.13
2023-03-17T00:56:35.588Z,101003.95
2023-03-17T00:57:36.248Z,101003.28
2023-03-17T00:58:36.956Z,101002.28
2023-03-17T00:59:37.635Z,101000.61
2023-03-17T01:00:38.361Z,100999.52
2023-03-17T01:01:39.057Z,100998.61
2023-03-17T01:02:39.648Z,100996.83
2023-03-17T01:03:40.425Z,100995.27
2023-03-17T01:04:41.872Z,100993.84
2023-03-17T01:05:24.499Z,100959.84
2023-03-17T01:06:25.287Z,100980.28
2023-03-17T01:07:25.988Z,100980.02
2023-03-17T01:08:26.784Z,100980.28
2023-03-17T01:09:27.585Z,100980.52
2023-03-17T01:10:28.558Z,100980.44
2023-03-17T01:11:28.984Z,100980.88
2023-03-17T01:12:29.756Z,100981.30
2023-03-17T01:13:30.416Z,100981.97
2023-03-17T01:14:31.204Z,100982.80
2023-03-17T01:15:31.782Z,100983.47
2023-03-17T01:16:32.545Z,100984.73
2023-03-17T01:17:14.299Z,100997.94
2023-03-17T01:18:15.091Z,101003.92
2023-03-17T01:19:15.662Z,101004.17
2023-03-17T01:20:16.417Z,101004.42
2023-03-17T01:21:17.112Z,101004.94
2023-03-17T01:22:17.916Z,101005.69
2023-03-17T01:23:18.520Z,101006.61
2023-03-17T01:24:19.143Z,101007.30
2023-03-17T01:25:19.724Z,101008.45
2023-03-17T01:26:20.467Z,101008.98
2023-03-17T01:27:21.146Z,101009.64
2023-03-17T01:28:21.787Z,101010.50
2023-03-17T01:29:18.632Z,101013.09
2023-03-17T01:30:19.199Z,101020.09
2023-03-17T01:31:19.998Z,101019.84
2023-03-17T01:32:20.616Z,101019.76
2023-03-17T01:33:21.256Z,101019.52
2023-03-17T01:34:21.982Z,101019.77
2023-03-17T01:35:22.744Z,101020.16
2023-03-17T01:36:23.426Z,101019.66
2023-03-17T01:37:24.297Z,101018.91
2023-03-17T01:38:25.024Z,101018.23
2023-03-17T01:39:25.680Z,101017.83
2023-03-17T01:40:26.304Z,101017.63
2023-03-17T01:41:09.643Z,100996.86
2023-03-17T01:42:10.354Z,101010.30
2023-03-17T01:43:11.131Z,101009.63
2023-03-17T01:44:11.850Z,101008.62
2023-03-17T01:45:12.681Z,101008.09
2023-03-17T01:46:13.369Z,101006.52
2023-03-17T01:47:14.154Z,101005.27
2023-03-17T01:48:14.854Z,101003.64
2023-03-17T01:49:15.737Z,101001.23
2023-03-17T01:50:16.424Z,100999.86
2023-03-17T01:51:17.052Z,100998.28
2023-03-17T01:51:29.249Z,100962.75
2023-03-17T01:52:30.102Z,100969.20
2023-03-17T01:53:30.837Z,100969.70
2023-03-17T01:54:31.668Z,100969.75
2023-03-17T01:55:32.446Z,100970.43
2023-03-17T01:56:33.159Z,100970.52
2023-03-17T01:57:34.001Z,100970.33
2023-03-17T01:58:34.674Z,100970.72
2023-03-17T01:59:35.354Z,100970.23
2023-03-17T02:00:36.131Z,100969.53
2023-03-17T02:01:36.910Z,100969.05
2023-03-17T02:02:37.884Z,100968.27
2023-03-17T02:02:58.514Z,100954.42
2023-03-17T02:03:59.179Z,100954.42
2023-03-17T02:04:59.814Z,100953.75
2023-03-17T02:06:00.713Z,100953.68
2023-03-17T02:07:01.369Z,100953.52
2023-03-17T02:08:02.247Z,100953.49
2023-03-17T02:09:02.994Z,100953.25
2023-03-17T02:10:03.905Z,100952.58
2023-03-17T02:11:04.569Z,100952.16
2023-03-17T02:12:05.408Z,100951.66
2023-03-17T02:13:06.248Z,100951.73
2023-03-17T02:13:16.919Z,100970.17
2023-03-17T02:14:17.625Z,100947.62
2023-03-17T02:15:18.304Z,100947.20
2023-03-17T02:16:51.506Z,100933.48
2023-03-17T02:17:52.202Z,100939.72
2023-03-17T02:18:52.945Z,100939.55
2023-03-17T02:19:53.605Z,100939.13
2023-03-17T02:20:54.377Z,100939.55
2023-03-17T02:21:55.192Z,100940.31
2023-03-17T02:22:55.558Z,100940.25
2023-03-17T02:23:56.310Z,100940.16
2023-03-17T02:24:57.256Z,100940.77
2023-03-17T02:25:58.124Z,100941.61
2023-03-17T02:26:58.723Z,100942.08
2023-03-17T02:27:59.480Z,100943.02
2023-03-17T02:28:42.997Z,100923.34
2023-03-17T02:29:43.105Z,100955.16
2023-03-17T02:30:43.706Z,100954.32
2023-03-17T02:31:44.121Z,100953.31
2023-03-17T02:32:44.924Z,100952.67
2023-03-17T02:33:45.492Z,100951.27
2023-03-17T02:34:46.092Z,100950.17
2023-03-17T02:35:46.843Z,100949.03
2023-03-17T02:36:47.554Z,100946.95
2023-03-17T02:37:48.143Z,100945.61
2023-03-17T02:38:48.733Z,100944.80
2023-03-17T02:39:49.421Z,100942.89
2023-03-17T02:40:09.554Z,100861.97
2023-03-17T02:41:10.207Z,100923.98
2023-03-17T02:42:10.386Z,100923.72
2023-03-17T02:43:11.411Z,100923.58
2023-03-17T02:44:12.167Z,100923.07
2023-03-17T02:45:13.077Z,100922.34
2023-03-17T02:46:14.130Z,100921.62
2023-03-17T02:47:14.783Z,100921.27
2023-03-17T02:48:15.456Z,100920.80
2023-03-17T02:49:16.196Z,100920.28
2023-03-17T02:50:16.723Z,100919.98
2023-03-17T02:51:17.259Z,100919.30
2023-03-17T02:52:00.565Z,100930.55
2023-03-17T02:53:01.157Z,100915.21
2023-03-17T02:54:01.805Z,100914.55
2023-03-17T02:55:02.390Z,100913.62
2023-03-17T02:56:03.040Z,100913.12
2023-03-17T02:57:03.846Z,100912.62
2023-03-17T02:58:04.539Z,100912.04
2023-03-17T02:59:05.145Z,100911.20
2023-03-17T03:00:05.749Z,100910.06
2023-03-17T03:01:06.455Z,100909.97
2023-03-17T03:02:07.253Z,100909.72
2023-03-17T03:02:19.497Z,100876.29
2023-03-17T03:03:20.053Z,100906.06
2023-03-17T03:04:20.661Z,100905.64
2023-03-17T03:05:21.405Z,100905.64
2023-03-17T03:06:22.308Z,100905.47
2023-03-17T03:07:22.915Z,100905.56
2023-03-17T03:08:23.514Z,100905.31
2023-03-17T03:09:24.284Z,100904.98
2023-03-17T03:10:24.856Z,100905.15
2023-03-17T03:11:25.591Z,100905.65
2023-03-17T03:12:55.388Z,100915.88
2023-03-17T03:13:56.077Z,100913.20
2023-03-17T03:14:56.759Z,100913.38
2023-03-17T03:15:57.434Z,100913.28
2023-03-17T03:16:58.077Z,100913.78
2023-03-17T03:17:58.668Z,100914.20
2023-03-17T03:18:59.412Z,100914.61
2023-03-17T03:20:00.081Z,100914.56
2023-03-17T03:21:00.763Z,100914.56
2023-03-17T03:22:01.649Z,100914.30
2023-03-17T03:23:02.292Z,100913.45
2023-03-17T03:23:22.018Z,100899.69
2023-03-17T03:24:22.582Z,100895.63
2023-03-17T03:25:23.320Z,100895.16
2023-03-17T03:27:30.326Z,100890.05
2023-03-17T03:28:31.201Z,100890.05
2023-03-17T03:29:31.855Z,100889.30
2023-03-17T03:30:32.788Z,100889.30
2023-03-17T03:31:33.088Z,100888.55
2023-03-17T03:32:33.719Z,100889.05
2023-03-17T03:33:34.536Z,100889.62
2023-03-17T03:34:35.370Z,100890.30
2023-03-17T03:35:35.992Z,100891.07
2023-03-17T03:36:36.582Z,100891.48
2023-03-17T03:37:37.329Z,100892.06
2023-03-17T03:38:37.994Z,100892.81
2023-03-17T03:40:26.587Z,100842.84
2023-03-17T03:41:27.405Z,100904.22
2023-03-17T03:42:28.233Z,100903.80
2023-03-17T03:43:28.434Z,100903.97
2023-03-17T03:44:29.335Z,100904.33
2023-03-17T03:45:30.007Z,100904.65
2023-03-17T03:46:30.732Z,100905.59
2023-03-17T03:47:31.365Z,100906.09
2023-03-17T03:48:31.914Z,100906.94
2023-03-17T03:49:32.605Z,100907.94
2023-03-17T03:50:33.234Z,100908.54
2023-03-17T03:51:33.792Z,100909.73
2023-03-17T03:51:46.989Z,100911.84
2023-03-17T03:52:47.768Z,100927.11
2023-03-17T03:53:57.603Z,100927.03
2023-03-17T03:54:49.211Z,100926.44
2023-03-17T03:55:50.048Z,100926.72
2023-03-17T03:56:50.705Z,100926.62
2023-03-17T03:57:51.492Z,100926.70
2023-03-17T03:58:52.343Z,100926.39
2023-03-17T03:59:53.128Z,100926.05
2023-03-17T04:00:53.779Z,100926.16
2023-03-17T04:01:54.578Z,100926.31
2023-03-17T04:02:55.361Z,100926.56
2023-03-17T04:03:06.428Z,100923.16
2023-03-17T04:04:06.502Z,100920.22
2023-03-17T04:05:07.294Z,100919.88
2023-03-17T04:06:07.934Z,100919.66
2023-03-17T04:07:08.609Z,100918.73
2023-03-17T04:08:09.400Z,100917.48
2023-03-17T04:09:10.050Z,100916.98
2023-03-17T04:10:10.659Z,100916.09
2023-03-17T04:11:11.415Z,100915.42
2023-03-17T04:12:12.040Z,100914.92
2023-03-17T04:13:12.853Z,100914.09
2023-03-17T04:14:13.700Z,100913.00
2023-03-17T04:15:14.351Z,100912.83
2023-03-17T04:15:26.389Z,100913.05
2023-03-17T04:16:27.240Z,100904.59
2023-03-17T04:17:27.791Z,100903.93
2023-03-17T04:18:28.386Z,100903.81
2023-03-17T04:19:29.019Z,100902.74
2023-03-17T04:20:30.089Z,100902.58
2023-03-17T04:21:30.451Z,100902.25
2023-03-17T04:22:31.128Z,100902.39
2023-03-17T04:23:31.798Z,100902.39
2023-03-17T04:24:32.418Z,100902.56
2023-03-17T04:25:33.030Z,100903.06
2023-03-17T04:26:33.877Z,100903.14
2023-03-17T04:26:49.033Z,100913.05
2023-03-17T04:27:49.665Z,100908.52
2023-03-17T04:28:50.149Z,100907.97
2023-03-17T04:29:50.759Z,100907.85
2023-03-17T04:30:51.427Z,100907.94
2023-03-17T04:31:52.158Z,100908.35
2023-03-17T04:32:52.676Z,100908.52
2023-03-17T04:33:53.261Z,100908.80
2023-03-17T04:34:53.944Z,100909.05
2023-03-17T04:35:54.581Z,100909.81
2023-03-17T04:36:55.400Z,100910.13
2023-03-17T04:37:56.052Z,100910.75
2023-03-17T04:38:18.728Z,100918.59
2023-03-17T04:39:19.364Z,100920.14
2023-03-17T04:40:19.952Z,100920.17
2023-03-17T04:41:20.685Z,100920.75
2023-03-17T04:42:21.279Z,100920.99
2023-03-17T04:43:22.132Z,100921.83
2023-03-17T04:44:22.968Z,100922.27
2023-03-17T04:45:23.035Z,100922.95
2023-03-17T04:46:23.336Z,100923.70
2023-03-17T04:47:23.574Z,100924.53
2023-03-17T04:48:23.784Z,100925.20
2023-03-17T04:49:07.092Z,100941.34
2023-03-17T04:50:08.159Z,100929.57
2023-03-17T04:51:11.564Z,100929.23
2023-03-17T04:52:09.806Z,100929.31
2023-03-17T04:53:10.748Z,100928.89
2023-03-17T04:54:11.424Z,100929.34
2023-03-17T04:55:12.254Z,100929.92
2023-03-17T04:56:13.086Z,100930.41
2023-03-17T04:57:13.721Z,100931.02
2023-03-17T04:58:29.567Z,100932.44
2023-03-17T04:59:15.125Z,100933.34
2023-03-17T04:59:58.413Z,100966.55
2023-03-17T05:00:59.285Z,100953.97
2023-03-17T05:01:59.838Z,100954.05
2023-03-17T05:03:00.526Z,100953.23
2023-03-17T05:04:01.279Z,100953.57
2023-03-17T05:05:10.484Z,100953.40
2023-03-17T05:06:02.365Z,100952.80
2023-03-17T05:07:02.874Z,100952.63
2023-03-17T05:08:03.585Z,100952.63
2023-03-17T05:09:03.733Z,100952.06
2023-03-17T05:10:04.412Z,100952.13
2023-03-17T05:11:05.230Z,100951.23
2023-03-17T05:11:22.867Z,100937.67
2023-03-17T05:12:23.760Z,100945.31
2023-03-17T05:13:24.624Z,100944.50
2023-03-17T05:14:25.488Z,100943.91
2023-03-17T05:15:26.259Z,100943.23
2023-03-17T05:16:26.251Z,100942.84
2023-03-17T05:17:26.930Z,100942.50
2023-03-17T05:18:27.573Z,100942.10
2023-03-17T05:19:28.110Z,100941.70
2023-03-17T05:20:29.177Z,100941.19
2023-03-17T05:21:29.515Z,100940.78
2023-03-17T05:21:42.212Z,100942.20
2023-03-17T05:23:17.935Z,100917.73
2023-03-17T05:24:18.833Z,100927.04
2023-03-17T05:25:19.795Z,100926.45
2023-03-17T05:26:20.493Z,100926.45
2023-03-17T05:27:20.681Z,100926.28
2023-03-17T05:28:21.597Z,100926.03
2023-03-17T05:29:22.379Z,100925.69
2023-03-17T05:30:23.252Z,100925.69
2023-03-17T05:31:24.090Z,100925.64
2023-03-17T05:32:24.781Z,100925.55
2023-03-17T05:33:25.666Z,100925.63
2023-03-17T05:34:26.515Z,100925.81
2023-03-17T05:35:09.846Z,100927.69
2023-03-17T05:36:10.680Z,100932.94
2023-03-17T05:37:11.305Z,100932.43
2023-03-17T05:38:11.903Z,100931.67
2023-03-17T05:39:14.499Z,100931.95
2023-03-17T05:40:13.270Z,100931.27
2023-03-17T05:41:14.132Z,100930.84
2023-03-17T05:42:14.942Z,100930.84
2023-03-17T05:43:15.804Z,100930.12
2023-03-17T05:44:16.616Z,100929.20
2023-03-17T05:45:17.440Z,100929.03
2023-03-17T05:46:20.318Z,100928.45
2023-03-17T05:47:34.276Z,100917.46
2023-03-17T05:48:35.040Z,100928.61
2023-03-17T05:49:35.698Z,100927.94
2023-03-17T05:50:36.559Z,100927.02
2023-03-17T05:51:37.484Z,100927.02
2023-03-17T05:52:38.299Z,100927.03
2023-03-17T05:53:39.039Z,100926.22
2023-03-17T05:54:39.814Z,100925.89
2023-03-17T05:55:40.572Z,100925.39
2023-03-17T05:56:41.522Z,100924.11
2023-03-17T05:57:42.247Z,100923.20
2023-03-17T05:58:43.046Z,100923.34
2023-03-17T05:59:03.676Z,100877.92
2023-03-17T06:00:03.688Z,100912.68
2023-03-17T06:01:04.469Z,100912.68
2023-03-17T06:02:05.652Z,100913.49
2023-03-17T06:03:05.390Z,100913.58
2023-03-17T06:04:06.331Z,100913.89
2023-03-17T06:05:06.919Z,100914.49
2023-03-17T06:06:06.946Z,100914.73
2023-03-17T06:07:07.751Z,100914.96
2023-03-17T06:08:08.644Z,100915.78
2023-03-17T06:09:09.228Z,100916.70
2023-03-17T06:09:27.897Z,100891.03
2023-03-17T06:10:29.201Z,100928.63
2023-03-17T06:11:29.594Z,100928.02
2023-03-17T06:12:30.333Z,100927.53
2023-03-17T06:13:30.997Z,100927.17
2023-03-17T06:14:31.936Z,100926.69
2023-03-17T06:15:33.137Z,100925.58
2023-03-17T06:16:33.479Z,100924.99
2023-03-17T06:17:34.221Z,100924.37
2023-03-17T06:18:34.851Z,100923.77
2023-03-17T06:20:25.082Z,100887.22
2023-03-17T06:21:25.864Z,100923.80
2023-03-17T06:22:26.513Z,100923.13
2023-03-17T06:23:27.351Z,100922.48
2023-03-17T06:24:27.989Z,100922.63
2023-03-17T06:25:29.126Z,100922.61
2023-03-17T06:26:29.412Z,100922.66
2023-03-17T06:27:30.137Z,100922.98
2023-03-17T06:28:31.052Z,100923.38
2023-03-17T06:29:31.663Z,100923.67
2023-03-17T06:30:32.344Z,100923.73
2023-03-17T06:31:33.285Z,100924.13
2023-03-17T06:32:49.317Z,100893.66
2023-03-17T06:33:49.982Z,100925.26
2023-03-17T06:34:50.910Z,100924.50
2023-03-17T06:35:51.699Z,100923.75
2023-03-17T06:36:52.482Z,100923.33
2023-03-17T06:37:53.139Z,100922.67
2023-03-17T06:38:53.810Z,100922.06
2023-03-17T06:39:54.428Z,100921.30
2023-03-17T06:40:55.135Z,100920.37
2023-03-17T06:41:56.097Z,100919.91
2023-03-17T06:42:56.755Z,100918.73
2023-03-17T06:44:12.707Z,100881.00
2023-03-17T06:45:12.767Z,100906.00
2023-03-17T06:46:13.587Z,100905.22
2023-03-17T06:47:14.068Z,100904.81
2023-03-17T06:48:14.739Z,100904.70
2023-03-17T06:49:15.274Z,100904.55
2023-03-17T06:50:15.893Z,100905.36
2023-03-17T06:51:16.717Z,100905.52
2023-03-17T06:52:17.405Z,100905.08
2023-03-17T06:53:18.023Z,100905.05
2023-03-17T06:54:18.986Z,100905.53
2023-03-17T06:55:19.691Z,100905.44
2023-03-17T06:56:02.954Z,100914.49
2023-03-17T06:57:03.680Z,100906.61
2023-03-17T06:58:04.548Z,100906.53
2023-03-17T06:59:05.265Z,100906.45
2023-03-17T07:00:06.036Z,100906.26
2023-03-17T07:01:06.821Z,100906.16
2023-03-17T07:02:07.106Z,100906.33
2023-03-17T07:03:07.742Z,100906.55
2023-03-17T07:04:07.759Z,100906.45
2023-03-17T07:05:08.452Z,100906.73
2023-03-17T07:06:09.203Z,100906.89
2023-03-17T07:06:53.559Z,100923.72
2023-03-17T07:07:54.202Z,100900.79
2023-03-17T07:08:54.896Z,100900.97
2023-03-17T07:09:55.642Z,100900.63
2023-03-17T07:10:56.373Z,100901.37
2023-03-17T07:11:57.099Z,100901.89
2023-03-17T07:12:57.892Z,100902.62
2023-03-17T07:13:58.648Z,100902.68
2023-03-17T07:14:59.521Z,100903.14
2023-03-17T07:16:00.785Z,100902.53
2023-03-17T07:17:01.039Z,100902.92
2023-03-17T07:18:01.874Z,100903.00
2023-03-17T07:19:02.592Z,100902.56
2023-03-17T07:19:25.135Z,100899.89
2023-03-17T07:20:25.928Z,100903.16
2023-03-17T07:21:26.702Z,100902.83
2023-03-17T07:22:27.463Z,100903.00
2023-03-17T07:23:28.376Z,100903.67
2023-03-17T07:24:29.076Z,100904.59
2023-03-17T07:25:30.153Z,100905.34
2023-03-17T07:26:30.695Z,100906.85
2023-03-17T07:27:31.581Z,100908.39
2023-03-17T07:28:32.274Z,100909.30
2023-03-17T07:29:33.073Z,100910.42
2023-03-17T07:30:33.856Z,100911.34
2023-03-17T07:30:45.516Z,100942.80
2023-03-17T07:32:52.221Z,100906.30
2023-03-17T07:33:53.497Z,100928.57
2023-03-17T07:34:54.206Z,100928.16
2023-03-17T07:35:54.426Z,100927.95
2023-03-17T07:36:54.393Z,100927.46
2023-03-17T07:37:55.116Z,100927.09
2023-03-17T07:38:55.791Z,100926.83
2023-03-17T07:39:56.506Z,100926.03
2023-03-17T07:40:57.361Z,100925.37
2023-03-17T07:41:58.047Z,100924.55
2023-03-17T07:42:58.755Z,100924.02
2023-03-17T07:43:42.056Z,100904.69
2023-03-17T07:44:42.802Z,100919.35
2023-03-17T07:45:43.636Z,100919.38
2023-03-17T07:46:44.584Z,100918.89
2023-03-17T07:47:45.402Z,100919.50
2023-03-17T07:48:45.517Z,100919.11
2023-03-17T07:49:46.341Z,100919.05
2023-03-17T07:50:47.049Z,100918.94
2023-03-17T07:51:47.836Z,100918.50
2023-03-17T07:52:48.655Z,100917.47
2023-03-17T07:53:49.288Z,100917.42
2023-03-17T07:54:32.576Z,100921.18
2023-03-17T07:55:33.438Z,100916.84
2023-03-17T07:56:33.335Z,100917.09
2023-03-17T07:57:34.121Z,100916.98
2023-03-17T07:58:34.139Z,100917.30
2023-03-17T07:59:34.625Z,100917.24
2023-03-17T08:00:35.686Z,100916.49
2023-03-17T08:01:36.164Z,100916.59
2023-03-17T08:02:36.873Z,100916.31
2023-03-17T08:03:40.633Z,100916.20
2023-03-17T08:04:38.274Z,100915.88
2023-03-17T08:05:39.140Z,100915.33
2023-03-17T08:05:52.813Z,100938.22
2023-03-17T08:06:53.643Z,100919.39
2023-03-17T08:07:54.328Z,100919.66
2023-03-17T08:08:55.147Z,100919.96
2023-03-17T08:09:55.200Z,100920.56
2023-03-17T08:10:56.042Z,100921.55
2023-03-17T08:11:56.751Z,100923.30
2023-03-17T08:12:57.526Z,100925.18
2023-03-17T08:13:58.417Z,100927.38
2023-03-17T08:14:59.204Z,100929.70
2023-03-17T08:16:00.134Z,100932.06
2023-03-17T08:17:00.804Z,100934.36
2023-03-17T08:17:13.880Z,100993.08
2023-03-17T08:18:14.624Z,100982.73
2023-03-17T08:19:15.385Z,100982.58
2023-03-17T08:20:16.044Z,100982.76
2023-03-17T08:21:16.985Z,100983.04
2023-03-17T08:22:17.929Z,100982.98
2023-03-17T08:23:18.669Z,100982.85
2023-03-17T08:24:19.661Z,100984.23
2023-03-17T08:25:20.027Z,100984.83
2023-03-17T08:26:20.731Z,100985.70
2023-03-17T08:27:33.260Z,100986.68
2023-03-17T08:28:22.304Z,100987.67
2023-03-17T08:29:22.938Z,100988.72
2023-03-17T08:30:06.164Z,101019.34
2023-03-17T08:31:06.873Z,101006.28
2023-03-17T08:32:07.568Z,101005.90
2023-03-17T08:33:08.394Z,101005.60
2023-03-17T08:34:09.090Z,101006.27
2023-03-17T08:35:09.899Z,101006.47
2023-03-17T08:36:10.779Z,101005.81
2023-03-17T08:37:11.567Z,101005.01
2023-03-17T08:38:11.698Z,101004.16
2023-03-17T08:39:12.380Z,101003.76
2023-03-17T08:40:13.091Z,101002.98
2023-03-17T08:40:25.254Z,100992.16
2023-03-17T08:41:25.905Z,100988.05
2023-03-17T08:42:26.604Z,100988.12
2023-03-17T08:43:27.265Z,100987.31
2023-03-17T08:44:27.946Z,100987.52
2023-03-17T08:45:28.777Z,100986.72
2023-03-17T08:46:29.448Z,100986.28
2023-03-17T08:47:29.831Z,100985.05
2023-03-17T08:48:30.681Z,100983.77
2023-03-17T08:49:31.499Z,100982.27
2023-03-17T08:50:32.669Z,100981.58
2023-03-17T08:51:32.959Z,100980.72
2023-03-17T08:51:46.132Z,100975.08
2023-03-17T08:53:16.973Z,100983.63
2023-03-17T08:54:17.635Z,100966.85
2023-03-17T08:55:18.470Z,100966.69
2023-03-17T08:56:19.355Z,100966.80
2023-03-17T08:57:20.104Z,100966.94
2023-03-17T08:58:20.821Z,100967.16
2023-03-17T08:59:21.489Z,100966.70
2023-03-17T09:00:22.184Z,100966.84
2023-03-17T09:01:23.150Z,100966.25
2023-03-17T09:02:23.607Z,100965.41
2023-03-17T09:03:24.469Z,100965.16
2023-03-17T09:04:08.187Z,100919.05
2023-03-17T09:05:08.895Z,100962.56
2023-03-17T09:06:09.568Z,100962.14
2023-03-17T09:07:09.903Z,100962.24
2023-03-17T09:08:10.796Z,100961.92
2023-03-17T09:09:11.447Z,100962.81
2023-03-17T09:10:12.346Z,100963.28
2023-03-17T09:11:12.982Z,100963.77
2023-03-17T09:12:13.637Z,100964.03
2023-03-17T09:13:14.280Z,100964.59
2023-03-17T09:14:15.127Z,100965.30
2023-03-17T09:15:15.773Z,100966.34
2023-03-17T09:15:29.311Z,100965.77
2023-03-17T09:16:29.600Z,100966.93
2023-03-17T09:17:30.208Z,100967.84
2023-03-17T09:18:30.937Z,100969.02
2023-03-17T09:19:31.614Z,100969.86
2023-03-17T09:20:32.440Z,100970.53
2023-03-17T09:21:32.782Z,100971.57
2023-03-17T09:22:33.457Z,100972.75
2023-03-17T09:23:34.117Z,100974.47
2023-03-17T09:24:34.886Z,100976.02
2023-03-17T09:25:35.626Z,100977.19
2023-03-17T09:25:50.309Z,101017.11
2023-03-17T09:26:51.059Z,101016.30
2023-03-17T09:27:51.780Z,101015.41
2023-03-17T09:28:52.372Z,101014.87
2023-03-17T09:29:52.991Z,101014.53
2023-03-17T09:30:53.793Z,101014.70
2023-03-17T09:31:54.392Z,101014.53
2023-03-17T09:32:55.421Z,101014.58
2023-03-17T09:33:55.876Z,101013.98
2023-03-17T09:34:56.620Z,101013.48
2023-03-17T09:35:57.327Z,101012.93
2023-03-17T09:36:12.958Z,100945.28
2023-03-17T09:37:13.667Z,101005.48
2023-03-17T09:38:14.532Z,101005.56
2023-03-17T09:39:15.249Z,101005.48
2023-03-17T09:40:16.081Z,101005.73
2023-03-17T09:41:16.814Z,101005.61
2023-03-17T09:42:17.615Z,101006.08
2023-03-17T09:43:18.340Z,101005.99
2023-03-17T09:44:19.014Z,101006.08
2023-03-17T09:45:20.004Z,101006.49
2023-03-17T09:46:20.847Z,101006.54
2023-03-17T09:47:21.582Z,101006.80
2023-03-17T09:47:36.720Z,101014.99
2023-03-17T09:48:37.460Z,101008.66
2023-03-17T09:49:38.182Z,101008.27
2023-03-17T09:50:38.944Z,101007.47
2023-03-17T09:51:39.709Z,101006.92
2023-03-17T09:52:39.806Z,101006.23
2023-03-17T09:53:40.508Z,101005.35
2023-03-17T09:54:41.169Z,101004.25
2023-03-17T09:55:41.273Z,101002.44
2023-03-17T09:56:42.134Z,101001.38
2023-03-17T09:57:42.848Z,101000.28
2023-03-17T09:58:43.165Z,100998.68
2023-03-17T09:58:59.285Z,100985.23
2023-03-17T10:00:00.015Z,100979.23
2023-03-17T10:01:00.896Z,100979.05
2023-03-17T10:02:01.783Z,100978.84
2023-03-17T10:03:02.588Z,100979.09
2023-03-17T10:04:03.374Z,100979.03
2023-03-17T10:05:04.194Z,100979.63
2023-03-17T10:06:04.928Z,100979.74
2023-03-17T10:07:05.900Z,100981.22
2023-03-17T10:08:19.036Z,100982.02
2023-03-17T10:09:06.620Z,100983.24
2023-03-17T10:09:23.280Z,101006.13
2023-03-17T10:10:22.775Z,101000.12
2023-03-17T10:11:23.612Z,101000.06
2023-03-17T10:12:24.606Z,100999.66
2023-03-17T10:13:25.471Z,100999.53
2023-03-17T10:22:28.864Z,100890.73
2023-03-17T10:23:29.779Z,100993.20
2023-03-17T10:24:30.447Z,100993.08
2023-03-17T10:25:31.650Z,100994.09
2023-03-17T10:26:32.086Z,100994.52
2023-03-17T10:27:32.786Z,100995.22
2023-03-17T10:28:33.619Z,100995.39
2023-03-17T10:29:34.377Z,100996.23
2023-03-17T10:30:35.113Z,100997.45
2023-03-17T10:31:35.919Z,100998.89
2023-03-17T10:32:36.862Z,100999.58
2023-03-17T10:32:52.390Z,100865.88
2023-03-17T10:33:52.647Z,101010.17
2023-03-17T10:34:53.370Z,101010.13
2023-03-17T10:35:53.557Z,101010.08
2023-03-17T10:36:54.125Z,101009.87
2023-03-17T10:38:08.007Z,101010.16
2023-03-17T10:38:55.612Z,101010.98
2023-03-17T10:39:56.387Z,101011.31
2023-03-17T10:40:57.196Z,101011.97
2023-03-17T10:41:57.940Z,101011.48
2023-03-17T10:42:58.075Z,101011.54
2023-03-17T10:43:58.954Z,101011.47
2023-03-17T10:44:14.046Z,100848.20
2023-03-17T10:45:14.918Z,101016.55
2023-03-17T10:46:15.321Z,101015.95
2023-03-17T10:47:16.097Z,101015.98
2023-03-17T10:48:16.955Z,101015.09
2023-03-17T10:49:17.747Z,101014.39
2023-03-17T10:50:18.531Z,101013.73
2023-03-17T10:51:19.317Z,101013.41
2023-03-17T10:52:20.038Z,101012.23
2023-03-17T10:53:20.394Z,101011.36
2023-03-17T10:54:21.135Z,101011.03
2023-03-17T10:54:36.348Z,100599.09
2023-03-17T10:55:36.524Z,100993.27
2023-03-17T10:56:37.264Z,100993.61
2023-03-17T10:57:38.063Z,100993.10
2023-03-17T10:58:38.727Z,100993.09
2023-03-17T10:59:41.109Z,100993.72
2023-03-17T11:00:40.192Z,100993.14
2023-03-17T11:01:40.799Z,100992.70
2023-03-17T11:02:41.577Z,100992.09
2023-03-17T11:03:42.474Z,100991.05
2023-03-17T11:04:43.142Z,100990.17
2023-03-17T11:05:43.807Z,100989.34
2023-03-17T11:05:58.463Z,100557.34
2023-03-17T11:06:59.376Z,100966.20
2023-03-17T11:08:00.143Z,100965.86
2023-03-17T11:09:00.852Z,100966.33
2023-03-17T11:10:01.858Z,100965.80
2023-03-17T11:11:02.524Z,100966.30
2023-03-17T11:12:03.464Z,100965.81
2023-03-17T11:13:04.630Z,100965.66
2023-03-17T11:14:04.760Z,100964.76
2023-03-17T11:15:05.104Z,100964.30
2023-03-17T11:16:05.805Z,100963.55
2023-03-17T11:17:06.564Z,100963.13